sensor_id;sensor_type;location;lat;lon;timestamp;P1;durP1;ratioP1;P2;durP2;ratioP2
27539;SDS011;15906;52.046;4.724;2022-07-05T00:00:18;4.10;;;3.28;;
27539;SDS011;15906;52.046;4.724;2022-07-05T00:02:43;5.85;;;3.40;;
27539;SDS011;15906;52.046;4.724;2022-07-05T00:05:09;6.55;;;3.50;;
27539;SDS011;15906;52.046;4.724;2022-07-05T00:07:34;5.00;;;3.65;;
27539;SDS011;15906;52.046;4.724;2022-07-05T00:10:00;5.25;;;3.30;;
27539;SDS011;15906;52.046;4.724;2022-07-05T00:12:29;5.70;;;3.63;;
27539;SDS011;15906;52.046;4.724;2022-07-05T00:14:57;5.38;;;3.47;;
27539;SDS011;15906;52.046;4.724;2022-07-05T00:17:23;5.32;;;3.42;;
27539;SDS011;15906;52.046;4.724;2022-07-05T00:19:49;4.88;;;3.47;;
27539;SDS011;15906;52.046;4.724;2022-07-05T00:22:15;5.68;;;3.60;;
27539;SDS011;15906;52.046;4.724;2022-07-05T00:24:40;4.82;;;3.58;;
27539;SDS011;15906;52.046;4.724;2022-07-05T00:27:06;5.40;;;3.33;;
27539;SDS011;15906;52.046;4.724;2022-07-05T00:29:31;5.20;;;2.95;;
27539;SDS011;15906;52.046;4.724;2022-07-05T00:31:57;4.55;;;3.67;;
27539;SDS011;15906;52.046;4.724;2022-07-05T00:34:23;9.23;;;3.42;;
27539;SDS011;15906;52.046;4.724;2022-07-05T00:36:48;5.18;;;3.38;;
27539;SDS011;15906;52.046;4.724;2022-07-05T00:39:14;6.05;;;3.38;;
27539;SDS011;15906;52.046;4.724;2022-07-05T00:41:40;4.80;;;3.30;;
27539;SDS011;15906;52.046;4.724;2022-07-05T00:44:07;8.70;;;4.10;;
27539;SDS011;15906;52.046;4.724;2022-07-05T00:46:35;8.27;;;4.95;;
27539;SDS011;15906;52.046;4.724;2022-07-05T00:49:01;8.40;;;4.68;;
27539;SDS011;15906;52.046;4.724;2022-07-05T00:51:32;6.05;;;4.97;;
27539;SDS011;15906;52.046;4.724;2022-07-05T00:54:00;7.18;;;5.40;;
27539;SDS011;15906;52.046;4.724;2022-07-05T00:56:26;8.15;;;4.65;;
27539;SDS011;15906;52.046;4.724;2022-07-05T00:58:52;7.80;;;5.93;;
27539;SDS011;15906;52.046;4.724;2022-07-05T01:01:18;8.43;;;5.85;;
27539;SDS011;15906;52.046;4.724;2022-07-05T01:03:44;9.15;;;5.82;;
27539;SDS011;15906;52.046;4.724;2022-07-05T01:06:11;9.07;;;5.60;;
27539;SDS011;15906;52.046;4.724;2022-07-05T01:08:38;7.97;;;5.88;;
27539;SDS011;15906;52.046;4.724;2022-07-05T01:11:06;9.43;;;5.50;;
27539;SDS011;15906;52.046;4.724;2022-07-05T01:13:32;7.38;;;5.57;;
27539;SDS011;15906;52.046;4.724;2022-07-05T01:15:58;8.35;;;6.18;;
27539;SDS011;15906;52.046;4.724;2022-07-05T01:18:24;8.45;;;6.15;;
27539;SDS011;15906;52.046;4.724;2022-07-05T01:20:50;9.07;;;6.18;;
27539;SDS011;15906;52.046;4.724;2022-07-05T01:23:17;7.40;;;5.78;;
27539;SDS011;15906;52.046;4.724;2022-07-05T01:25:44;8.93;;;6.00;;
27539;SDS011;15906;52.046;4.724;2022-07-05T01:28:14;8.07;;;6.43;;
27539;SDS011;15906;52.046;4.724;2022-07-05T01:30:40;6.50;;;5.28;;
27539;SDS011;15906;52.046;4.724;2022-07-05T01:33:07;8.63;;;5.88;;
27539;SDS011;15906;52.046;4.724;2022-07-05T01:35:34;10.13;;;6.57;;
27539;SDS011;15906;52.046;4.724;2022-07-05T01:38:00;9.20;;;5.18;;
27539;SDS011;15906;52.046;4.724;2022-07-05T01:40:26;8.20;;;6.30;;
27539;SDS011;15906;52.046;4.724;2022-07-05T01:42:51;9.48;;;6.13;;
27539;SDS011;15906;52.046;4.724;2022-07-05T01:45:18;7.55;;;5.55;;
27539;SDS011;15906;52.046;4.724;2022-07-05T01:48:07;8.27;;;5.47;;
27539;SDS011;15906;52.046;4.724;2022-07-05T01:53:29;7.18;;;5.75;;
27539;SDS011;15906;52.046;4.724;2022-07-05T01:56:05;9.10;;;6.32;;
27539;SDS011;15906;52.046;4.724;2022-07-05T01:58:31;10.32;;;5.13;;
27539;SDS011;15906;52.046;4.724;2022-07-05T02:00:57;9.27;;;5.43;;
27539;SDS011;15906;52.046;4.724;2022-07-05T02:03:23;9.77;;;5.57;;
27539;SDS011;15906;52.046;4.724;2022-07-05T02:05:50;7.65;;;6.05;;
27539;SDS011;15906;52.046;4.724;2022-07-05T02:08:16;7.97;;;6.57;;
27539;SDS011;15906;52.046;4.724;2022-07-05T02:10:42;8.20;;;6.18;;
27539;SDS011;15906;52.046;4.724;2022-07-05T02:13:08;8.88;;;6.07;;
27539;SDS011;15906;52.046;4.724;2022-07-05T02:15:36;7.85;;;5.97;;
27539;SDS011;15906;52.046;4.724;2022-07-05T02:18:04;6.88;;;5.40;;
27539;SDS011;15906;52.046;4.724;2022-07-05T02:20:30;7.68;;;5.82;;
27539;SDS011;15906;52.046;4.724;2022-07-05T02:22:57;7.25;;;5.82;;
27539;SDS011;15906;52.046;4.724;2022-07-05T02:25:23;8.48;;;5.90;;
27539;SDS011;15906;52.046;4.724;2022-07-05T02:27:49;9.02;;;5.65;;
27539;SDS011;15906;52.046;4.724;2022-07-05T02:30:16;8.85;;;5.70;;
27539;SDS011;15906;52.046;4.724;2022-07-05T02:32:42;11.40;;;6.68;;
27539;SDS011;15906;52.046;4.724;2022-07-05T02:35:08;7.82;;;5.45;;
27539;SDS011;15906;52.046;4.724;2022-07-05T02:37:35;9.57;;;5.97;;
27539;SDS011;15906;52.046;4.724;2022-07-05T02:40:01;9.05;;;6.28;;
27539;SDS011;15906;52.046;4.724;2022-07-05T02:42:28;8.63;;;6.95;;
27539;SDS011;15906;52.046;4.724;2022-07-05T02:44:53;8.05;;;6.30;;
27539;SDS011;15906;52.046;4.724;2022-07-05T02:47:19;7.80;;;6.15;;
27539;SDS011;15906;52.046;4.724;2022-07-05T02:49:44;9.35;;;6.65;;
27539;SDS011;15906;52.046;4.724;2022-07-05T02:52:10;9.23;;;6.75;;
27539;SDS011;15906;52.046;4.724;2022-07-05T02:54:35;12.15;;;7.00;;
27539;SDS011;15906;52.046;4.724;2022-07-05T02:57:01;10.63;;;7.10;;
27539;SDS011;15906;52.046;4.724;2022-07-05T02:59:27;11.35;;;7.15;;
27539;SDS011;15906;52.046;4.724;2022-07-05T03:01:53;13.57;;;7.57;;
27539;SDS011;15906;52.046;4.724;2022-07-05T03:04:18;11.55;;;7.65;;
27539;SDS011;15906;52.046;4.724;2022-07-05T03:06:44;12.88;;;8.27;;
27539;SDS011;15906;52.046;4.724;2022-07-05T03:09:09;11.43;;;7.38;;
27539;SDS011;15906;52.046;4.724;2022-07-05T03:11:35;10.65;;;7.78;;
27539;SDS011;15906;52.046;4.724;2022-07-05T03:14:00;11.25;;;8.10;;
27539;SDS011;15906;52.046;4.724;2022-07-05T03:16:26;10.25;;;7.80;;
27539;SDS011;15906;52.046;4.724;2022-07-05T03:18:52;10.35;;;8.00;;
27539;SDS011;15906;52.046;4.724;2022-07-05T03:21:17;11.40;;;8.05;;
27539;SDS011;15906;52.046;4.724;2022-07-05T03:23:43;12.55;;;8.20;;
27539;SDS011;15906;52.046;4.724;2022-07-05T03:26:08;12.00;;;8.65;;
27539;SDS011;15906;52.046;4.724;2022-07-05T03:28:34;12.75;;;9.02;;
27539;SDS011;15906;52.046;4.724;2022-07-05T03:31:00;12.27;;;9.15;;
27539;SDS011;15906;52.046;4.724;2022-07-05T03:33:25;11.25;;;8.57;;
27539;SDS011;15906;52.046;4.724;2022-07-05T03:35:51;11.82;;;8.95;;
27539;SDS011;15906;52.046;4.724;2022-07-05T03:38:16;12.85;;;9.38;;
27539;SDS011;15906;52.046;4.724;2022-07-05T03:40:42;12.07;;;8.80;;
27539;SDS011;15906;52.046;4.724;2022-07-05T03:43:07;11.95;;;8.45;;
27539;SDS011;15906;52.046;4.724;2022-07-05T03:45:33;13.23;;;8.23;;
27539;SDS011;15906;52.046;4.724;2022-07-05T03:47:59;14.77;;;9.05;;
27539;SDS011;15906;52.046;4.724;2022-07-05T03:50:25;11.38;;;8.00;;
27539;SDS011;15906;52.046;4.724;2022-07-05T03:52:51;12.35;;;7.50;;
27539;SDS011;15906;52.046;4.724;2022-07-05T03:55:16;9.30;;;7.47;;
27539;SDS011;15906;52.046;4.724;2022-07-05T03:57:42;10.65;;;7.97;;
27539;SDS011;15906;52.046;4.724;2022-07-05T04:00:08;12.93;;;9.00;;
27539;SDS011;15906;52.046;4.724;2022-07-05T04:02:34;11.30;;;8.52;;
27539;SDS011;15906;52.046;4.724;2022-07-05T04:05:00;13.23;;;8.98;;
27539;SDS011;15906;52.046;4.724;2022-07-05T04:07:25;11.82;;;7.68;;
27539;SDS011;15906;52.046;4.724;2022-07-05T04:09:51;13.80;;;8.18;;
27539;SDS011;15906;52.046;4.724;2022-07-05T04:12:16;11.15;;;7.93;;
27539;SDS011;15906;52.046;4.724;2022-07-05T04:14:42;10.73;;;8.02;;
27539;SDS011;15906;52.046;4.724;2022-07-05T04:17:07;10.15;;;7.60;;
27539;SDS011;15906;52.046;4.724;2022-07-05T04:19:33;10.23;;;8.27;;
27539;SDS011;15906;52.046;4.724;2022-07-05T04:21:59;14.52;;;8.05;;
27539;SDS011;15906;52.046;4.724;2022-07-05T04:24:24;11.32;;;8.07;;
27539;SDS011;15906;52.046;4.724;2022-07-05T04:26:50;10.18;;;7.28;;
27539;SDS011;15906;52.046;4.724;2022-07-05T04:29:15;9.23;;;7.43;;
27539;SDS011;15906;52.046;4.724;2022-07-05T04:31:41;10.73;;;7.22;;
27539;SDS011;15906;52.046;4.724;2022-07-05T04:34:07;12.27;;;7.93;;
27539;SDS011;15906;52.046;4.724;2022-07-05T04:36:32;10.27;;;7.80;;
27539;SDS011;15906;52.046;4.724;2022-07-05T04:38:58;9.43;;;6.57;;
27539;SDS011;15906;52.046;4.724;2022-07-05T04:41:23;9.52;;;7.28;;
27539;SDS011;15906;52.046;4.724;2022-07-05T04:43:49;10.07;;;7.72;;
27539;SDS011;15906;52.046;4.724;2022-07-05T04:46:15;9.82;;;7.57;;
27539;SDS011;15906;52.046;4.724;2022-07-05T04:48:40;9.48;;;6.53;;
27539;SDS011;15906;52.046;4.724;2022-07-05T04:51:06;10.00;;;7.05;;
27539;SDS011;15906;52.046;4.724;2022-07-05T04:53:31;8.88;;;6.28;;
27539;SDS011;15906;52.046;4.724;2022-07-05T04:55:57;9.18;;;6.90;;
27539;SDS011;15906;52.046;4.724;2022-07-05T04:58:23;11.05;;;7.03;;
27539;SDS011;15906;52.046;4.724;2022-07-05T05:00:48;11.50;;;6.78;;
27539;SDS011;15906;52.046;4.724;2022-07-05T05:03:14;9.93;;;7.03;;
27539;SDS011;15906;52.046;4.724;2022-07-05T05:05:39;9.38;;;7.38;;
27539;SDS011;15906;52.046;4.724;2022-07-05T05:08:05;13.10;;;5.88;;
27539;SDS011;15906;52.046;4.724;2022-07-05T05:10:30;10.27;;;7.10;;
27539;SDS011;15906;52.046;4.724;2022-07-05T05:12:56;10.43;;;7.38;;
27539;SDS011;15906;52.046;4.724;2022-07-05T05:15:21;8.93;;;6.43;;
27539;SDS011;15906;52.046;4.724;2022-07-05T05:17:47;10.00;;;7.20;;
27539;SDS011;15906;52.046;4.724;2022-07-05T05:20:13;12.20;;;7.88;;
27539;SDS011;15906;52.046;4.724;2022-07-05T05:22:40;15.57;;;8.73;;
27539;SDS011;15906;52.046;4.724;2022-07-05T05:25:07;14.63;;;7.95;;
27539;SDS011;15906;52.046;4.724;2022-07-05T05:27:33;15.95;;;10.05;;
27539;SDS011;15906;52.046;4.724;2022-07-05T05:29:59;13.55;;;9.57;;
27539;SDS011;15906;52.046;4.724;2022-07-05T05:32:25;18.95;;;9.57;;
27539;SDS011;15906;52.046;4.724;2022-07-05T05:34:51;13.73;;;9.90;;
27539;SDS011;15906;52.046;4.724;2022-07-05T05:37:16;13.95;;;9.32;;
27539;SDS011;15906;52.046;4.724;2022-07-05T05:39:42;11.27;;;7.80;;
27539;SDS011;15906;52.046;4.724;2022-07-05T05:42:07;12.57;;;8.32;;
27539;SDS011;15906;52.046;4.724;2022-07-05T05:44:33;11.75;;;7.05;;
27539;SDS011;15906;52.046;4.724;2022-07-05T05:46:59;6.95;;;6.07;;
27539;SDS011;15906;52.046;4.724;2022-07-05T05:49:24;10.75;;;6.88;;
27539;SDS011;15906;52.046;4.724;2022-07-05T05:51:50;10.75;;;7.93;;
27539;SDS011;15906;52.046;4.724;2022-07-05T05:54:15;11.90;;;9.55;;
27539;SDS011;15906;52.046;4.724;2022-07-05T05:56:41;11.80;;;8.57;;
27539;SDS011;15906;52.046;4.724;2022-07-05T05:59:06;13.82;;;9.63;;
27539;SDS011;15906;52.046;4.724;2022-07-05T06:01:33;15.73;;;9.98;;
27539;SDS011;15906;52.046;4.724;2022-07-05T06:03:58;13.65;;;9.48;;
27539;SDS011;15906;52.046;4.724;2022-07-05T06:06:24;11.70;;;9.10;;
27539;SDS011;15906;52.046;4.724;2022-07-05T06:08:49;11.10;;;8.70;;
27539;SDS011;15906;52.046;4.724;2022-07-05T06:11:15;11.45;;;8.60;;
27539;SDS011;15906;52.046;4.724;2022-07-05T06:13:40;9.57;;;7.70;;
27539;SDS011;15906;52.046;4.724;2022-07-05T06:16:07;12.93;;;5.72;;
27539;SDS011;15906;52.046;4.724;2022-07-05T06:18:33;9.32;;;4.80;;
27539;SDS011;15906;52.046;4.724;2022-07-05T06:20:58;6.10;;;4.78;;
27539;SDS011;15906;52.046;4.724;2022-07-05T06:23:24;7.22;;;4.45;;
27539;SDS011;15906;52.046;4.724;2022-07-05T06:25:49;7.07;;;5.28;;
27539;SDS011;15906;52.046;4.724;2022-07-05T06:28:15;5.82;;;3.83;;
27539;SDS011;15906;52.046;4.724;2022-07-05T06:30:41;7.25;;;4.05;;
27539;SDS011;15906;52.046;4.724;2022-07-05T06:33:07;5.13;;;3.08;;
27539;SDS011;15906;52.046;4.724;2022-07-05T06:35:32;5.00;;;3.08;;
27539;SDS011;15906;52.046;4.724;2022-07-05T06:38:08;4.85;;;2.70;;
27539;SDS011;15906;52.046;4.724;2022-07-05T06:40:38;4.10;;;2.53;;
27539;SDS011;15906;52.046;4.724;2022-07-05T06:43:07;6.28;;;2.83;;
27539;SDS011;15906;52.046;4.724;2022-07-05T06:45:33;6.47;;;2.33;;
27539;SDS011;15906;52.046;4.724;2022-07-05T06:48:03;7.45;;;2.60;;
27539;SDS011;15906;52.046;4.724;2022-07-05T06:50:32;6.85;;;1.85;;
27539;SDS011;15906;52.046;4.724;2022-07-05T06:53:03;6.22;;;2.20;;
27539;SDS011;15906;52.046;4.724;2022-07-05T06:55:29;2.80;;;1.92;;
27539;SDS011;15906;52.046;4.724;2022-07-05T06:58:02;5.88;;;2.10;;
27539;SDS011;15906;52.046;4.724;2022-07-05T07:00:29;4.28;;;2.30;;
27539;SDS011;15906;52.046;4.724;2022-07-05T07:02:56;4.82;;;1.80;;
27539;SDS011;15906;52.046;4.724;2022-07-05T07:05:22;6.47;;;2.17;;
27539;SDS011;15906;52.046;4.724;2022-07-05T07:07:48;4.30;;;1.58;;
27539;SDS011;15906;52.046;4.724;2022-07-05T07:10:32;5.60;;;1.60;;
27539;SDS011;15906;52.046;4.724;2022-07-05T07:12:58;4.07;;;1.75;;
27539;SDS011;15906;52.046;4.724;2022-07-05T07:15:24;3.95;;;1.65;;
27539;SDS011;15906;52.046;4.724;2022-07-05T07:17:50;1.65;;;1.30;;
27539;SDS011;15906;52.046;4.724;2022-07-05T07:20:16;3.08;;;1.50;;
27539;SDS011;15906;52.046;4.724;2022-07-05T07:22:42;3.03;;;1.70;;
27539;SDS011;15906;52.046;4.724;2022-07-05T07:25:07;3.75;;;1.50;;
27539;SDS011;15906;52.046;4.724;2022-07-05T07:27:50;5.32;;;1.85;;
27539;SDS011;15906;52.046;4.724;2022-07-05T07:30:17;2.67;;;1.40;;
27539;SDS011;15906;52.046;4.724;2022-07-05T07:32:45;6.13;;;1.65;;
27539;SDS011;15906;52.046;4.724;2022-07-05T07:35:10;2.80;;;1.30;;
27539;SDS011;15906;52.046;4.724;2022-07-05T07:37:36;5.13;;;1.38;;
27539;SDS011;15906;52.046;4.724;2022-07-05T07:40:02;4.32;;;1.27;;
27539;SDS011;15906;52.046;4.724;2022-07-05T07:42:29;1.65;;;1.08;;
27539;SDS011;15906;52.046;4.724;2022-07-05T07:44:54;5.78;;;1.10;;
27539;SDS011;15906;52.046;4.724;2022-07-05T07:47:20;3.15;;;0.95;;
27539;SDS011;15906;52.046;4.724;2022-07-05T07:49:45;4.10;;;1.17;;
27539;SDS011;15906;52.046;4.724;2022-07-05T07:52:11;6.20;;;1.20;;
27539;SDS011;15906;52.046;4.724;2022-07-05T07:54:37;4.68;;;1.25;;
27539;SDS011;15906;52.046;4.724;2022-07-05T07:57:02;3.90;;;0.95;;
27539;SDS011;15906;52.046;4.724;2022-07-05T07:59:31;3.17;;;1.00;;
27539;SDS011;15906;52.046;4.724;2022-07-05T08:01:57;3.58;;;1.00;;
27539;SDS011;15906;52.046;4.724;2022-07-05T08:04:23;2.03;;;0.90;;
27539;SDS011;15906;52.046;4.724;2022-07-05T08:06:49;3.50;;;0.93;;
27539;SDS011;15906;52.046;4.724;2022-07-05T08:09:14;2.72;;;0.90;;
27539;SDS011;15906;52.046;4.724;2022-07-05T08:11:40;2.70;;;0.70;;
27539;SDS011;15906;52.046;4.724;2022-07-05T08:14:06;3.60;;;1.23;;
27539;SDS011;15906;52.046;4.724;2022-07-05T08:16:31;4.78;;;0.80;;
27539;SDS011;15906;52.046;4.724;2022-07-05T08:18:57;2.38;;;0.85;;
27539;SDS011;15906;52.046;4.724;2022-07-05T08:21:41;2.20;;;0.70;;
27539;SDS011;15906;52.046;4.724;2022-07-05T08:24:08;2.67;;;0.90;;
27539;SDS011;15906;52.046;4.724;2022-07-05T08:26:35;2.42;;;0.70;;
27539;SDS011;15906;52.046;4.724;2022-07-05T08:29:03;1.38;;;0.80;;
27539;SDS011;15906;52.046;4.724;2022-07-05T08:31:31;2.50;;;0.82;;
27539;SDS011;15906;52.046;4.724;2022-07-05T08:33:58;2.33;;;1.00;;
27539;SDS011;15906;52.046;4.724;2022-07-05T08:36:24;3.70;;;1.05;;
27539;SDS011;15906;52.046;4.724;2022-07-05T08:38:50;2.75;;;0.98;;
27539;SDS011;15906;52.046;4.724;2022-07-05T08:41:17;2.22;;;1.00;;
27539;SDS011;15906;52.046;4.724;2022-07-05T08:43:44;5.88;;;1.52;;
27539;SDS011;15906;52.046;4.724;2022-07-05T08:46:11;2.97;;;1.00;;
27539;SDS011;15906;52.046;4.724;2022-07-05T08:48:39;2.70;;;0.90;;
27539;SDS011;15906;52.046;4.724;2022-07-05T08:51:19;3.53;;;1.10;;
27539;SDS011;15906;52.046;4.724;2022-07-05T08:53:46;3.60;;;1.10;;
27539;SDS011;15906;52.046;4.724;2022-07-05T08:56:14;3.38;;;1.13;;
27539;SDS011;15906;52.046;4.724;2022-07-05T08:58:40;2.38;;;0.88;;
27539;SDS011;15906;52.046;4.724;2022-07-05T09:01:07;2.58;;;0.98;;
27539;SDS011;15906;52.046;4.724;2022-07-05T09:03:37;2.72;;;1.52;;
27539;SDS011;15906;52.046;4.724;2022-07-05T09:06:06;1.63;;;0.80;;
27539;SDS011;15906;52.046;4.724;2022-07-05T09:08:37;3.22;;;0.85;;
27539;SDS011;15906;52.046;4.724;2022-07-05T09:11:05;4.97;;;1.05;;
27539;SDS011;15906;52.046;4.724;2022-07-05T09:13:36;3.22;;;1.10;;
27539;SDS011;15906;52.046;4.724;2022-07-05T09:16:03;5.57;;;1.05;;
27539;SDS011;15906;52.046;4.724;2022-07-05T09:18:48;2.60;;;0.88;;
27539;SDS011;15906;52.046;4.724;2022-07-05T09:23:45;4.00;;;1.05;;
27539;SDS011;15906;52.046;4.724;2022-07-05T09:26:37;3.08;;;0.80;;
27539;SDS011;15906;52.046;4.724;2022-07-05T09:29:13;3.47;;;1.10;;
27539;SDS011;15906;52.046;4.724;2022-07-05T09:31:41;4.35;;;0.93;;
27539;SDS011;15906;52.046;4.724;2022-07-05T09:34:10;3.45;;;1.15;;
27539;SDS011;15906;52.046;4.724;2022-07-05T09:36:46;1.67;;;0.80;;
27539;SDS011;15906;52.046;4.724;2022-07-05T09:39:15;5.05;;;1.00;;
27539;SDS011;15906;52.046;4.724;2022-07-05T09:41:41;6.82;;;2.33;;
27539;SDS011;15906;52.046;4.724;2022-07-05T09:44:07;3.67;;;0.98;;
27539;SDS011;15906;52.046;4.724;2022-07-05T09:47:11;4.38;;;0.80;;
27539;SDS011;15906;52.046;4.724;2022-07-05T09:52:41;6.28;;;1.10;;
27539;SDS011;15906;52.046;4.724;2022-07-05T09:55:10;4.40;;;1.15;;
27539;SDS011;15906;52.046;4.724;2022-07-05T10:09:01;4.63;;;1.15;;
27539;SDS011;15906;52.046;4.724;2022-07-05T10:14:48;1.95;;;1.23;;
27539;SDS011;15906;52.046;4.724;2022-07-05T10:17:14;2.17;;;1.10;;
27539;SDS011;15906;52.046;4.724;2022-07-05T10:19:41;2.28;;;0.82;;
27539;SDS011;15906;52.046;4.724;2022-07-05T10:22:10;4.57;;;0.90;;
27539;SDS011;15906;52.046;4.724;2022-07-05T10:24:37;3.67;;;0.80;;
27539;SDS011;15906;52.046;4.724;2022-07-05T10:27:06;4.72;;;1.15;;
27539;SDS011;15906;52.046;4.724;2022-07-05T10:29:36;2.72;;;0.95;;
27539;SDS011;15906;52.046;4.724;2022-07-05T10:32:02;4.55;;;1.13;;
27539;SDS011;15906;52.046;4.724;2022-07-05T10:34:30;2.75;;;0.98;;
27539;SDS011;15906;52.046;4.724;2022-07-05T10:36:58;3.40;;;1.23;;
27539;SDS011;15906;52.046;4.724;2022-07-05T10:39:23;2.85;;;1.10;;
27539;SDS011;15906;52.046;4.724;2022-07-05T10:41:50;2.97;;;1.33;;
27539;SDS011;15906;52.046;4.724;2022-07-05T10:44:29;3.58;;;1.00;;
27539;SDS011;15906;52.046;4.724;2022-07-05T10:47:07;2.83;;;0.98;;
27539;SDS011;15906;52.046;4.724;2022-07-05T10:49:38;3.53;;;0.98;;
27539;SDS011;15906;52.046;4.724;2022-07-05T10:52:04;1.05;;;0.90;;
27539;SDS011;15906;52.046;4.724;2022-07-05T10:57:40;6.53;;;1.00;;
27539;SDS011;15906;52.046;4.724;2022-07-05T11:00:08;1.85;;;0.88;;
27539;SDS011;15906;52.046;4.724;2022-07-05T11:02:35;2.38;;;0.70;;
27539;SDS011;15906;52.046;4.724;2022-07-05T11:05:02;4.05;;;1.08;;
27539;SDS011;15906;52.046;4.724;2022-07-05T11:10:25;3.00;;;0.90;;
27539;SDS011;15906;52.046;4.724;2022-07-05T11:12:51;2.63;;;0.75;;
27539;SDS011;15906;52.046;4.724;2022-07-05T11:15:17;2.83;;;0.88;;
27539;SDS011;15906;52.046;4.724;2022-07-05T11:17:43;1.83;;;0.85;;
27539;SDS011;15906;52.046;4.724;2022-07-05T11:20:10;1.00;;;0.80;;
27539;SDS011;15906;52.046;4.724;2022-07-05T11:22:38;1.80;;;0.85;;
27539;SDS011;15906;52.046;4.724;2022-07-05T11:25:24;2.25;;;0.90;;
27539;SDS011;15906;52.046;4.724;2022-07-05T11:28:06;5.65;;;0.75;;
27539;SDS011;15906;52.046;4.724;2022-07-05T11:36:04;1.75;;;0.73;;
27539;SDS011;15906;52.046;4.724;2022-07-05T11:38:32;1.35;;;0.60;;
27539;SDS011;15906;52.046;4.724;2022-07-05T11:41:14;2.55;;;0.70;;
27539;SDS011;15906;52.046;4.724;2022-07-05T11:43:40;1.15;;;0.70;;
27539;SDS011;15906;52.046;4.724;2022-07-05T11:46:07;2.17;;;0.80;;
27539;SDS011;15906;52.046;4.724;2022-07-05T11:48:32;1.85;;;0.82;;
27539;SDS011;15906;52.046;4.724;2022-07-05T11:50:58;1.55;;;0.60;;
27539;SDS011;15906;52.046;4.724;2022-07-05T11:53:36;3.00;;;0.60;;
27539;SDS011;15906;52.046;4.724;2022-07-05T11:56:02;1.98;;;0.90;;
27539;SDS011;15906;52.046;4.724;2022-07-05T11:58:31;5.60;;;0.90;;
27539;SDS011;15906;52.046;4.724;2022-07-05T12:00:58;3.25;;;0.70;;
27539;SDS011;15906;52.046;4.724;2022-07-05T12:03:24;4.10;;;0.80;;
27539;SDS011;15906;52.046;4.724;2022-07-05T12:05:50;2.10;;;0.82;;
27539;SDS011;15906;52.046;4.724;2022-07-05T12:08:23;1.98;;;0.70;;
27539;SDS011;15906;52.046;4.724;2022-07-05T12:10:50;1.52;;;0.70;;
27539;SDS011;15906;52.046;4.724;2022-07-05T12:13:42;2.30;;;0.65;;
27539;SDS011;15906;52.046;4.724;2022-07-05T12:16:08;1.02;;;0.65;;
27539;SDS011;15906;52.046;4.724;2022-07-05T12:18:56;1.20;;;0.68;;
27539;SDS011;15906;52.046;4.724;2022-07-05T12:21:22;1.70;;;0.57;;
27539;SDS011;15906;52.046;4.724;2022-07-05T12:23:48;3.33;;;0.75;;
27539;SDS011;15906;52.046;4.724;2022-07-05T12:26:15;1.15;;;0.52;;
27539;SDS011;15906;52.046;4.724;2022-07-05T12:28:42;1.25;;;0.60;;
27539;SDS011;15906;52.046;4.724;2022-07-05T12:31:22;1.25;;;0.60;;
27539;SDS011;15906;52.046;4.724;2022-07-05T12:33:49;1.42;;;0.70;;
27539;SDS011;15906;52.046;4.724;2022-07-05T12:36:17;5.43;;;0.90;;
27539;SDS011;15906;52.046;4.724;2022-07-05T12:38:43;2.10;;;1.02;;
27539;SDS011;15906;52.046;4.724;2022-07-05T12:41:10;1.85;;;0.70;;
27539;SDS011;15906;52.046;4.724;2022-07-05T12:43:49;2.53;;;0.90;;
27539;SDS011;15906;52.046;4.724;2022-07-05T12:46:14;2.83;;;0.75;;
27539;SDS011;15906;52.046;4.724;2022-07-05T12:48:40;2.47;;;0.80;;
27539;SDS011;15906;52.046;4.724;2022-07-05T12:51:06;3.83;;;0.85;;
27539;SDS011;15906;52.046;4.724;2022-07-05T12:53:34;0.88;;;0.70;;
27539;SDS011;15906;52.046;4.724;2022-07-05T12:56:24;1.17;;;0.80;;
27539;SDS011;15906;52.046;4.724;2022-07-05T12:59:09;2.58;;;0.70;;
27539;SDS011;15906;52.046;4.724;2022-07-05T13:01:39;2.97;;;1.00;;
27539;SDS011;15906;52.046;4.724;2022-07-05T13:04:09;2.10;;;0.63;;
27539;SDS011;15906;52.046;4.724;2022-07-05T13:17:04;0.65;;;0.55;;
27539;SDS011;15906;52.046;4.724;2022-07-05T13:19:30;1.38;;;0.70;;
27539;SDS011;15906;52.046;4.724;2022-07-05T13:21:56;3.28;;;1.15;;
27539;SDS011;15906;52.046;4.724;2022-07-05T13:24:21;3.55;;;0.80;;
27539;SDS011;15906;52.046;4.724;2022-07-05T13:26:47;1.65;;;0.73;;
27539;SDS011;15906;52.046;4.724;2022-07-05T13:29:12;1.45;;;0.73;;
27539;SDS011;15906;52.046;4.724;2022-07-05T13:31:38;1.98;;;1.00;;
27539;SDS011;15906;52.046;4.724;2022-07-05T13:34:04;2.40;;;0.90;;
27539;SDS011;15906;52.046;4.724;2022-07-05T13:36:29;4.82;;;1.10;;
27539;SDS011;15906;52.046;4.724;2022-07-05T13:38:55;2.83;;;0.98;;
27539;SDS011;15906;52.046;4.724;2022-07-05T13:41:20;4.78;;;1.20;;
27539;SDS011;15906;52.046;4.724;2022-07-05T13:43:46;4.63;;;1.63;;
27539;SDS011;15906;52.046;4.724;2022-07-05T13:46:12;1.65;;;1.02;;
27539;SDS011;15906;52.046;4.724;2022-07-05T13:48:38;5.18;;;0.95;;
27539;SDS011;15906;52.046;4.724;2022-07-05T13:51:04;1.60;;;1.00;;
27539;SDS011;15906;52.046;4.724;2022-07-05T13:53:30;3.88;;;1.55;;
27539;SDS011;15906;52.046;4.724;2022-07-05T13:55:56;2.85;;;1.33;;
27539;SDS011;15906;52.046;4.724;2022-07-05T13:58:21;1.88;;;0.90;;
27539;SDS011;15906;52.046;4.724;2022-07-05T14:00:47;3.38;;;1.15;;
27539;SDS011;15906;52.046;4.724;2022-07-05T14:03:12;1.95;;;1.05;;
27539;SDS011;15906;52.046;4.724;2022-07-05T14:05:38;1.58;;;1.05;;
27539;SDS011;15906;52.046;4.724;2022-07-05T14:08:04;3.53;;;1.42;;
27539;SDS011;15906;52.046;4.724;2022-07-05T14:10:29;1.83;;;1.20;;
27539;SDS011;15906;52.046;4.724;2022-07-05T14:12:55;6.38;;;1.38;;
27539;SDS011;15906;52.046;4.724;2022-07-05T14:15:20;4.15;;;1.23;;
27539;SDS011;15906;52.046;4.724;2022-07-05T14:17:46;3.00;;;1.38;;
27539;SDS011;15906;52.046;4.724;2022-07-05T14:20:11;4.88;;;1.23;;
27539;SDS011;15906;52.046;4.724;2022-07-05T14:22:38;1.20;;;1.10;;
27539;SDS011;15906;52.046;4.724;2022-07-05T14:25:03;1.58;;;1.02;;
27539;SDS011;15906;52.046;4.724;2022-07-05T14:27:30;3.70;;;1.17;;
27539;SDS011;15906;52.046;4.724;2022-07-05T14:29:55;2.05;;;1.10;;
27539;SDS011;15906;52.046;4.724;2022-07-05T14:32:22;2.78;;;1.00;;
27539;SDS011;15906;52.046;4.724;2022-07-05T14:34:47;3.13;;;1.23;;
27539;SDS011;15906;52.046;4.724;2022-07-05T14:37:13;5.07;;;1.10;;
27539;SDS011;15906;52.046;4.724;2022-07-05T14:39:39;2.55;;;1.20;;
27539;SDS011;15906;52.046;4.724;2022-07-05T14:42:05;2.50;;;1.27;;
27539;SDS011;15906;52.046;4.724;2022-07-05T14:44:30;1.23;;;0.90;;
27539;SDS011;15906;52.046;4.724;2022-07-05T14:46:56;2.17;;;1.00;;
27539;SDS011;15906;52.046;4.724;2022-07-05T14:49:21;1.83;;;1.08;;
27539;SDS011;15906;52.046;4.724;2022-07-05T14:51:47;3.50;;;1.25;;
27539;SDS011;15906;52.046;4.724;2022-07-05T14:54:12;3.10;;;1.08;;
27539;SDS011;15906;52.046;4.724;2022-07-05T14:56:38;2.28;;;1.10;;
27539;SDS011;15906;52.046;4.724;2022-07-05T14:59:03;4.47;;;1.60;;
27539;SDS011;15906;52.046;4.724;2022-07-05T15:01:29;3.92;;;1.30;;
27539;SDS011;15906;52.046;4.724;2022-07-05T15:03:55;4.40;;;1.45;;
27539;SDS011;15906;52.046;4.724;2022-07-05T15:06:20;2.90;;;1.42;;
27539;SDS011;15906;52.046;4.724;2022-07-05T15:08:46;2.42;;;1.30;;
27539;SDS011;15906;52.046;4.724;2022-07-05T15:11:12;4.65;;;1.30;;
27539;SDS011;15906;52.046;4.724;2022-07-05T15:13:37;2.72;;;1.48;;
27539;SDS011;15906;52.046;4.724;2022-07-05T15:16:03;3.45;;;1.52;;
27539;SDS011;15906;52.046;4.724;2022-07-05T15:18:30;3.80;;;1.20;;
27539;SDS011;15906;52.046;4.724;2022-07-05T15:20:56;4.00;;;1.10;;
27539;SDS011;15906;52.046;4.724;2022-07-05T15:23:22;2.33;;;1.13;;
27539;SDS011;15906;52.046;4.724;2022-07-05T15:25:52;2.53;;;1.33;;
27539;SDS011;15906;52.046;4.724;2022-07-05T15:28:22;1.85;;;1.38;;
27539;SDS011;15906;52.046;4.724;2022-07-05T15:30:48;4.25;;;1.45;;